Lexington, Minnesota
Current Conditions -  °F | °C
As of 3:34 AM on Thursday 23 Oct 2014 (Local Time) from KANE Reporting Station
Moderate Rain Moderate Rain  
Wind Chill: 52°   Ceiling: 1700
Heat Index: 52°   Visibility: 5mi
Dew Point: 52°   Wind: 9mph
Humidity: 100%   Direction: 160°SSE
Pressure: 29.99"   Gusts: NA
Location:  45.1631°N, 93.1211°W
Report Text: KANE 230834Z AUTO 16008KT 5SM RA OVC017 11/11 A2999 RMK AO2
Loading
Personal Weather Stations






























Interactive Weather Map
Tropical Storm Tracking
New forecast layout! Learn more

10-Day Weather Forecast

Advertisements
Track Severe Weather on mobile